createdAt,value
2023-07-25T00:01:17.121Z,60.82
2023-07-25T00:03:44.991Z,60.80
2023-07-25T00:06:12.819Z,60.57
2023-07-25T00:08:40.654Z,60.58
2023-07-25T00:11:14.358Z,60.85
2023-07-25T00:13:42.288Z,60.62
2023-07-25T00:16:11.507Z,60.70
2023-07-25T00:18:39.278Z,60.69
2023-07-25T00:21:07.081Z,60.67
2023-07-25T00:23:34.888Z,60.66
2023-07-25T00:26:02.701Z,60.60
2023-07-25T00:28:30.557Z,60.71
2023-07-25T00:30:58.371Z,60.66
2023-07-25T00:33:27.536Z,60.67
2023-07-25T00:35:55.538Z,60.52
2023-07-25T00:38:23.284Z,60.47
2023-07-25T00:40:51.072Z,60.54
2023-07-25T00:43:18.881Z,60.58
2023-07-25T00:45:46.804Z,60.61
2023-07-25T00:48:15.086Z,60.63
2023-07-25T00:50:45.317Z,60.50
2023-07-25T00:53:15.163Z,60.62
2023-07-25T00:55:43.213Z,60.54
2023-07-25T00:58:11.081Z,60.40
2023-07-25T01:00:40.500Z,60.44
2023-07-25T01:03:08.876Z,60.35
2023-07-25T01:05:40.971Z,60.42
2023-07-25T01:08:10.184Z,60.40
2023-07-25T01:10:39.755Z,60.47
2023-07-25T01:13:07.731Z,60.42
2023-07-25T01:15:37.392Z,60.42
2023-07-25T01:18:06.131Z,60.49
2023-07-25T01:20:36.274Z,60.40
2023-07-25T01:23:06.934Z,60.64
2023-07-25T01:25:36.104Z,60.40
2023-07-25T01:28:04.022Z,60.07
2023-07-25T01:30:31.963Z,60.13
2023-07-25T01:32:59.875Z,60.10
2023-07-25T01:35:27.667Z,60.29
2023-07-25T01:37:55.457Z,60.18
2023-07-25T01:40:23.369Z,60.04
2023-07-25T01:42:52.524Z,60.06
2023-07-25T01:45:20.412Z,60.07
2023-07-25T01:47:48.209Z,59.94
2023-07-25T01:50:16.032Z,59.77
2023-07-25T01:52:43.820Z,59.95
2023-07-25T01:55:12.000Z,60.09
2023-07-25T01:57:39.787Z,59.96
2023-07-25T02:00:10.208Z,59.83
2023-07-25T02:02:38.044Z,59.89
2023-07-25T02:05:06.502Z,59.95
2023-07-25T02:07:34.492Z,60.00
2023-07-25T02:10:02.356Z,60.01
2023-07-25T02:12:31.530Z,60.06
2023-07-25T02:14:59.322Z,60.06
2023-07-25T02:17:28.490Z,60.00
2023-07-25T02:19:56.243Z,60.11
2023-07-25T02:22:24.041Z,60.08
2023-07-25T02:24:51.989Z,60.23
2023-07-25T02:27:19.767Z,60.25
2023-07-25T02:29:47.632Z,60.26
2023-07-25T02:32:15.383Z,60.27
2023-07-25T02:34:44.469Z,60.20
2023-07-25T02:37:12.306Z,60.37
2023-07-25T02:39:40.495Z,60.15
2023-07-25T02:42:08.536Z,60.21
2023-07-25T02:44:36.318Z,60.47
2023-07-25T02:47:04.421Z,60.24
2023-07-25T02:49:32.210Z,60.41
2023-07-25T02:52:01.317Z,60.51
2023-07-25T02:54:29.033Z,60.61
2023-07-25T02:56:56.805Z,60.42
2023-07-25T02:59:24.583Z,60.59
2023-07-25T03:01:52.407Z,60.42
2023-07-25T03:04:20.154Z,60.56
2023-07-25T03:06:48.005Z,60.43
2023-07-25T03:09:17.113Z,60.47
2023-07-25T03:11:44.942Z,60.46
2023-07-25T03:14:12.689Z,60.12
2023-07-25T03:16:40.519Z,60.04
2023-07-25T03:19:08.260Z,60.30
2023-07-25T03:21:36.004Z,60.45
2023-07-25T03:24:03.809Z,60.51
2023-07-25T03:26:33.146Z,60.60
2023-07-25T03:29:00.933Z,60.51
2023-07-25T03:31:28.852Z,60.29
2023-07-25T03:33:56.820Z,60.33
2023-07-25T03:36:25.440Z,60.44
2023-07-25T03:38:53.415Z,60.44
2023-07-25T03:41:21.145Z,60.07
2023-07-25T03:43:50.274Z,60.08
2023-07-25T03:46:18.021Z,60.00
2023-07-25T03:48:45.854Z,59.86
2023-07-25T03:51:13.610Z,59.99
2023-07-25T03:53:41.348Z,60.19
2023-07-25T03:56:09.116Z,60.12
2023-07-25T03:58:36.864Z,60.13
2023-07-25T04:01:05.992Z,60.36
2023-07-25T04:03:33.871Z,60.38
2023-07-25T04:06:01.839Z,60.05
2023-07-25T04:08:29.582Z,59.98
2023-07-25T04:10:57.335Z,59.88
2023-07-25T04:13:25.110Z,60.02
2023-07-25T04:15:52.944Z,59.98
2023-07-25T04:18:22.135Z,60.11
2023-07-25T04:20:49.865Z,60.05
2023-07-25T04:23:17.784Z,60.11
2023-07-25T04:25:45.574Z,60.24
2023-07-25T04:28:13.654Z,60.45
2023-07-25T04:30:41.441Z,60.48
2023-07-25T04:33:09.212Z,60.58
2023-07-25T04:35:38.338Z,60.45
2023-07-25T04:38:06.082Z,60.36
2023-07-25T04:40:33.859Z,60.19
2023-07-25T04:43:01.632Z,60.24
2023-07-25T04:45:29.442Z,60.25
2023-07-25T04:47:57.273Z,60.34
2023-07-25T04:50:25.032Z,60.18
2023-07-25T04:52:54.164Z,60.34
2023-07-25T04:55:21.914Z,60.29
2023-07-25T04:57:51.222Z,60.20
2023-07-25T05:00:19.334Z,60.40
2023-07-25T05:02:47.247Z,60.25
2023-07-25T05:05:15.139Z,60.38
2023-07-25T05:07:42.978Z,60.15
2023-07-25T05:10:12.832Z,60.27
2023-07-25T05:12:40.616Z,60.19
2023-07-25T05:15:09.298Z,60.18
2023-07-25T05:17:37.059Z,60.12
2023-07-25T05:20:05.582Z,60.39
2023-07-25T05:22:33.325Z,60.33
2023-07-25T05:25:01.120Z,60.29
2023-07-25T05:27:30.215Z,60.27
2023-07-25T05:29:58.032Z,60.17
2023-07-25T05:32:25.867Z,60.23
2023-07-25T05:34:53.649Z,60.26
2023-07-25T05:37:21.492Z,60.21
2023-07-25T05:39:52.111Z,60.05
2023-07-25T05:42:19.881Z,60.15
2023-07-25T05:44:49.084Z,60.03
2023-07-25T05:47:16.865Z,60.22
2023-07-25T05:49:44.658Z,60.25
2023-07-25T05:52:12.389Z,60.21
2023-07-25T05:54:40.207Z,60.29
2023-07-25T05:57:08.849Z,60.14
2023-07-25T05:59:36.637Z,60.13
2023-07-25T06:02:06.302Z,60.20
2023-07-25T06:04:34.071Z,59.96
2023-07-25T06:07:01.885Z,59.98
2023-07-25T06:09:29.716Z,60.03
2023-07-25T06:11:57.734Z,60.15
2023-07-25T06:14:25.603Z,60.14
2023-07-25T06:16:53.405Z,60.21
2023-07-25T06:19:22.879Z,60.19
2023-07-25T06:21:50.875Z,60.12
2023-07-25T06:24:18.907Z,60.30
2023-07-25T06:26:46.707Z,60.17
2023-07-25T06:29:14.497Z,60.10
2023-07-25T06:31:42.703Z,60.14
2023-07-25T06:34:10.553Z,60.40
2023-07-25T06:36:39.660Z,60.30
2023-07-25T06:39:07.389Z,60.43
2023-07-25T06:41:35.239Z,60.25
2023-07-25T06:44:03.063Z,60.12
2023-07-25T06:46:30.897Z,60.16
2023-07-25T06:48:58.940Z,60.16
2023-07-25T06:51:26.822Z,60.16
2023-07-25T06:53:55.954Z,60.20
2023-07-25T06:56:23.682Z,60.24
2023-07-25T06:58:51.426Z,60.29
2023-07-25T07:01:19.250Z,60.25
2023-07-25T07:03:46.983Z,60.12
2023-07-25T07:06:14.731Z,60.15
2023-07-25T07:08:42.469Z,60.29
2023-07-25T07:11:11.581Z,60.31
2023-07-25T07:13:39.380Z,60.38
2023-07-25T07:16:07.169Z,60.50
2023-07-25T07:18:35.027Z,60.28
2023-07-25T07:21:02.786Z,60.41
2023-07-25T07:23:30.567Z,60.29
2023-07-25T07:25:58.322Z,60.38
2023-07-25T07:28:27.447Z,60.53
2023-07-25T07:30:56.440Z,60.45
2023-07-25T07:33:26.519Z,60.54
2023-07-25T07:35:54.352Z,60.59
2023-07-25T07:38:22.205Z,60.63
2023-07-25T07:40:50.066Z,60.57
2023-07-25T07:43:17.903Z,60.60
2023-07-25T07:45:47.030Z,60.76
2023-07-25T07:48:14.775Z,60.72
2023-07-25T07:50:42.523Z,60.70
2023-07-25T07:53:10.318Z,60.77
2023-07-25T07:55:38.141Z,60.52
2023-07-25T07:58:06.111Z,60.71
2023-07-25T08:00:34.266Z,60.57
2023-07-25T08:03:03.408Z,60.73
2023-07-25T08:05:31.307Z,60.80
2023-07-25T08:07:59.097Z,60.75
2023-07-25T08:10:27.041Z,60.78
2023-07-25T08:12:54.812Z,60.58
2023-07-25T08:15:22.599Z,60.74
2023-07-25T08:17:50.493Z,60.70
2023-07-25T08:20:19.760Z,60.70
2023-07-25T08:22:49.144Z,60.57
2023-07-25T08:25:17.100Z,60.53
2023-07-25T08:27:44.885Z,60.56
2023-07-25T08:30:13.285Z,60.40
2023-07-25T08:32:41.241Z,60.56
2023-07-25T08:35:09.656Z,60.31
2023-07-25T08:37:38.830Z,60.57
2023-07-25T08:40:08.322Z,60.48
2023-07-25T08:42:37.404Z,60.69
2023-07-25T08:45:08.280Z,60.76
2023-07-25T08:47:41.282Z,60.64
2023-07-25T08:50:13.871Z,60.77
2023-07-25T08:52:48.020Z,60.65
2023-07-25T08:55:16.010Z,60.29
2023-07-25T08:57:45.145Z,60.17
2023-07-25T09:00:15.095Z,60.08
2023-07-25T09:02:43.076Z,60.09
2023-07-25T09:05:12.058Z,59.97
2023-07-25T09:07:41.174Z,59.98
2023-07-25T09:10:12.241Z,60.08
2023-07-25T09:12:40.155Z,59.87
2023-07-25T09:15:08.730Z,59.82
2023-07-25T09:17:37.031Z,59.80
2023-07-25T09:20:06.862Z,59.25
2023-07-25T09:22:35.500Z,59.63
2023-07-25T09:25:10.880Z,59.47
2023-07-25T09:27:38.624Z,59.16
2023-07-25T09:30:12.941Z,59.23
2023-07-25T09:32:41.107Z,59.05
2023-07-25T09:35:10.881Z,59.04
2023-07-25T09:37:38.656Z,58.83
2023-07-25T09:40:11.939Z,58.46
2023-07-25T09:42:42.433Z,58.44
2023-07-25T09:45:11.236Z,58.42
2023-07-25T09:47:39.509Z,58.30
2023-07-25T09:50:08.562Z,58.21
2023-07-25T09:52:43.837Z,58.29
2023-07-25T09:55:12.971Z,57.96
2023-07-25T09:57:41.211Z,58.13
2023-07-25T10:00:10.680Z,57.58
2023-07-25T10:02:39.407Z,57.54
2023-07-25T10:05:09.352Z,57.56
2023-07-25T10:07:37.570Z,57.72
2023-07-25T10:10:06.194Z,57.13
2023-07-25T10:12:35.300Z,57.32
2023-07-25T10:15:03.372Z,56.85
2023-07-25T10:17:31.134Z,56.72
2023-07-25T10:19:59.264Z,56.99
2023-07-25T10:22:37.996Z,57.01
2023-07-25T10:25:11.200Z,56.84
2023-07-25T10:27:40.440Z,56.65
2023-07-25T10:30:23.893Z,56.53
2023-07-25T10:32:53.737Z,55.99
2023-07-25T10:35:43.381Z,56.06
2023-07-25T10:38:12.666Z,55.53
2023-07-25T10:40:57.612Z,55.41
2023-07-25T10:43:30.866Z,55.84
2023-07-25T10:46:02.251Z,56.54
2023-07-25T10:48:37.470Z,55.99
2023-07-25T10:51:09.429Z,56.12
2023-07-25T10:53:37.808Z,55.95
2023-07-25T10:56:16.761Z,55.70
2023-07-25T10:59:09.612Z,55.67
2023-07-25T11:01:49.255Z,55.73
2023-07-25T11:04:28.766Z,56.01
2023-07-25T11:06:58.347Z,55.87
2023-07-25T11:09:27.391Z,55.84
2023-07-25T11:11:56.371Z,56.01
2023-07-25T11:14:25.549Z,55.12
2023-07-25T11:16:54.897Z,54.26
2023-07-25T11:19:29.654Z,54.68
2023-07-25T11:21:57.589Z,53.96
2023-07-25T11:24:25.464Z,53.83
2023-07-25T11:26:53.296Z,53.93
2023-07-25T11:29:21.033Z,53.27
2023-07-25T11:31:51.172Z,53.53
2023-07-25T11:34:20.561Z,53.73
2023-07-25T11:36:48.994Z,53.48
2023-07-25T11:39:18.050Z,53.53
2023-07-25T11:41:46.820Z,53.73
2023-07-25T11:44:16.372Z,53.69
2023-07-25T11:46:46.539Z,54.34
2023-07-25T11:49:24.971Z,54.22
2023-07-25T11:52:04.706Z,53.75
2023-07-25T11:54:33.796Z,53.21
2023-07-25T11:57:02.196Z,53.51
2023-07-25T11:59:30.007Z,53.54
2023-07-25T12:02:07.058Z,52.92
2023-07-25T12:04:43.843Z,53.55
2023-07-25T12:07:11.741Z,53.94
2023-07-25T12:09:41.009Z,53.93
2023-07-25T12:12:13.710Z,53.72
2023-07-25T12:14:42.366Z,53.83
2023-07-25T12:17:10.253Z,53.75
2023-07-25T12:19:39.424Z,53.56
2023-07-25T12:22:09.196Z,52.80
2023-07-25T12:24:43.189Z,53.12
2023-07-25T12:27:17.795Z,53.07
2023-07-25T12:29:45.913Z,52.68
2023-07-25T12:32:14.111Z,52.14
2023-07-25T12:34:43.323Z,51.10
2023-07-25T12:37:11.117Z,50.47
2023-07-25T12:39:41.568Z,50.92
2023-07-25T12:42:09.462Z,51.08
2023-07-25T12:44:37.324Z,50.64
2023-07-25T12:47:05.797Z,50.57
2023-07-25T12:49:34.717Z,50.44
2023-07-25T12:52:03.902Z,49.28
2023-07-25T12:54:31.722Z,48.91
2023-07-25T12:56:59.487Z,48.49
2023-07-25T12:59:27.318Z,47.55
2023-07-25T13:01:55.477Z,47.68
2023-07-25T13:04:23.486Z,48.20
2023-07-25T13:06:51.616Z,48.29
2023-07-25T13:09:20.844Z,48.40
2023-07-25T13:11:48.689Z,46.03
2023-07-25T13:14:16.571Z,45.60
2023-07-25T13:16:44.598Z,45.73
2023-07-25T13:19:13.616Z,45.41
2023-07-25T13:21:41.445Z,46.25
2023-07-25T13:24:09.325Z,46.35
2023-07-25T13:26:38.982Z,46.29
2023-07-25T13:29:06.864Z,45.69
2023-07-25T13:31:34.954Z,45.54
2023-07-25T13:34:02.863Z,45.09
2023-07-25T13:36:30.734Z,45.87
2023-07-25T13:38:58.534Z,45.01
2023-07-25T13:41:26.380Z,45.45
2023-07-25T13:43:55.492Z,45.15
2023-07-25T13:46:23.317Z,44.24
2023-07-25T13:48:52.148Z,44.24
2023-07-25T13:51:20.063Z,44.33
2023-07-25T13:53:47.922Z,43.82
2023-07-25T13:56:15.892Z,44.46
2023-07-25T13:58:43.908Z,45.01
2023-07-25T14:01:13.113Z,45.00
2023-07-25T14:03:40.925Z,44.79
2023-07-25T14:06:08.653Z,44.16
2023-07-25T14:08:36.473Z,44.08
2023-07-25T14:11:04.345Z,44.74
2023-07-25T14:13:32.759Z,44.72
2023-07-25T14:16:01.349Z,43.42
2023-07-25T14:18:30.588Z,42.94
2023-07-25T14:21:00.602Z,44.00
2023-07-25T14:23:28.526Z,43.90
2023-07-25T14:25:56.401Z,44.11
2023-07-25T14:28:24.297Z,44.28
2023-07-25T14:30:52.289Z,44.34
2023-07-25T14:33:21.764Z,44.89
2023-07-25T14:35:51.412Z,44.82
2023-07-25T14:38:19.772Z,44.44
2023-07-25T14:40:47.937Z,44.42
2023-07-25T14:43:15.736Z,44.33
2023-07-25T14:45:43.546Z,44.70
2023-07-25T14:48:11.473Z,45.01
2023-07-25T14:50:40.851Z,44.21
2023-07-25T14:53:10.291Z,44.37
2023-07-25T14:55:38.093Z,44.63
2023-07-25T14:58:05.970Z,45.04
2023-07-25T15:00:33.964Z,44.87
2023-07-25T15:03:01.952Z,44.59
2023-07-25T15:05:29.938Z,44.95
2023-07-25T15:07:57.738Z,45.03
2023-07-25T15:10:27.250Z,44.53
2023-07-25T15:12:56.305Z,44.01
2023-07-25T15:15:24.181Z,44.76
2023-07-25T15:17:52.367Z,44.65
2023-07-25T15:20:21.680Z,44.88
2023-07-25T15:22:49.703Z,44.59
2023-07-25T15:25:17.526Z,44.50
2023-07-25T15:27:46.742Z,44.07
2023-07-25T15:30:14.569Z,44.37
2023-07-25T15:32:42.472Z,44.53
2023-07-25T15:35:11.382Z,44.49
2023-07-25T15:37:39.498Z,45.10
2023-07-25T15:40:09.198Z,45.30
2023-07-25T15:42:36.958Z,45.60
2023-07-25T15:45:07.491Z,45.72
2023-07-25T15:47:35.352Z,44.97
2023-07-25T15:50:03.477Z,45.01
2023-07-25T15:52:31.389Z,44.84
2023-07-25T15:55:00.073Z,44.90
2023-07-25T15:57:27.984Z,44.54
2023-07-25T15:59:55.832Z,45.16
2023-07-25T16:02:25.151Z,45.12
2023-07-25T16:04:52.978Z,45.38
2023-07-25T16:07:20.746Z,45.98
2023-07-25T16:09:48.488Z,45.94
2023-07-25T16:12:16.915Z,45.83
2023-07-25T16:14:44.751Z,45.36
2023-07-25T16:17:12.777Z,45.12
2023-07-25T16:19:42.360Z,45.41
2023-07-25T16:22:10.224Z,45.81
2023-07-25T16:24:38.152Z,45.50
2023-07-25T16:27:06.556Z,45.54
2023-07-25T16:29:34.419Z,45.74
2023-07-25T16:32:02.380Z,45.91
2023-07-25T16:34:31.518Z,45.74
2023-07-25T16:37:00.664Z,45.63
2023-07-25T16:39:28.720Z,45.71
2023-07-25T16:41:56.836Z,45.83
2023-07-25T16:44:24.833Z,45.38
2023-07-25T16:46:52.619Z,44.88
2023-07-25T16:49:20.482Z,45.02
2023-07-25T16:51:48.383Z,45.03
2023-07-25T16:54:17.975Z,44.78
2023-07-25T16:56:45.973Z,44.79
2023-07-25T16:59:13.737Z,45.19
2023-07-25T17:01:41.545Z,44.89
2023-07-25T17:04:09.343Z,45.12
2023-07-25T17:06:37.235Z,44.23
2023-07-25T17:09:05.500Z,43.68
2023-07-25T17:11:35.723Z,44.06
2023-07-25T17:14:03.944Z,44.29
2023-07-25T17:16:31.916Z,44.76
2023-07-25T17:18:59.748Z,44.35
2023-07-25T17:21:39.411Z,44.65
2023-07-25T17:24:09.044Z,44.82
2023-07-25T17:26:38.834Z,44.71
2023-07-25T17:29:07.135Z,44.82
2023-07-25T17:31:35.602Z,44.88
2023-07-25T17:34:04.166Z,45.06
2023-07-25T17:36:32.081Z,45.17
2023-07-25T17:38:59.874Z,43.99
2023-07-25T17:41:27.701Z,43.77
2023-07-25T17:43:56.906Z,43.38
2023-07-25T17:46:24.759Z,43.94
2023-07-25T17:48:54.510Z,43.53
2023-07-25T17:51:22.457Z,43.81
2023-07-25T17:53:50.227Z,43.76
2023-07-25T17:56:18.076Z,43.91
2023-07-25T17:58:45.923Z,43.98
2023-07-25T18:01:15.274Z,43.04
2023-07-25T18:03:43.224Z,43.65
2023-07-25T18:06:11.018Z,43.72
2023-07-25T18:08:39.200Z,44.03
2023-07-25T18:11:07.263Z,43.86
2023-07-25T18:13:35.079Z,43.64
2023-07-25T18:16:02.955Z,43.84
2023-07-25T18:18:32.234Z,43.98
2023-07-25T18:21:00.006Z,43.97
2023-07-25T18:23:27.772Z,44.35
2023-07-25T18:26:01.119Z,44.59
2023-07-25T18:28:29.044Z,44.59
2023-07-25T18:30:56.853Z,44.78
2023-07-25T18:33:24.781Z,44.74
2023-07-25T18:35:53.957Z,44.45
2023-07-25T18:38:21.809Z,44.27
2023-07-25T18:40:49.678Z,44.21
2023-07-25T18:43:20.506Z,44.52
2023-07-25T18:45:48.435Z,44.53
2023-07-25T18:48:16.269Z,44.66
2023-07-25T18:50:44.700Z,44.97
2023-07-25T18:53:13.944Z,44.82
2023-07-25T18:55:42.408Z,45.14
2023-07-25T18:58:10.284Z,45.26
2023-07-25T19:00:38.170Z,45.11
2023-07-25T19:03:06.029Z,45.53
2023-07-25T19:05:34.002Z,45.47
2023-07-25T19:08:01.848Z,45.76
2023-07-25T19:10:31.185Z,45.76
2023-07-25T19:12:59.019Z,45.89
2023-07-25T19:15:27.013Z,46.08
2023-07-25T19:17:54.877Z,46.30
2023-07-25T19:20:22.655Z,46.47
2023-07-25T19:22:50.420Z,46.90
2023-07-25T19:25:18.248Z,46.88
2023-07-25T19:27:49.236Z,46.90
2023-07-25T19:30:17.291Z,47.17
2023-07-25T19:32:45.839Z,47.20
2023-07-25T19:35:13.685Z,47.21
2023-07-25T19:37:41.498Z,47.44
2023-07-25T19:40:10.679Z,47.60
2023-07-25T19:42:38.587Z,47.56
2023-07-25T19:45:08.964Z,47.82
2023-07-25T19:47:36.839Z,47.97
2023-07-25T19:50:04.933Z,47.87
2023-07-25T19:52:32.714Z,48.04
2023-07-25T19:55:00.588Z,48.12
2023-07-25T19:57:28.400Z,47.97
2023-07-25T19:59:56.158Z,48.15
2023-07-25T20:02:25.360Z,48.40
2023-07-25T20:04:53.306Z,48.50
2023-07-25T20:07:21.111Z,48.59
2023-07-25T20:09:49.177Z,48.63
2023-07-25T20:12:17.030Z,48.62
2023-07-25T20:14:44.856Z,48.83
2023-07-25T20:17:12.612Z,48.81
2023-07-25T20:19:41.767Z,48.80
2023-07-25T20:22:09.575Z,48.98
2023-07-25T20:24:37.412Z,48.96
2023-07-25T20:27:05.629Z,49.06
2023-07-25T20:29:33.546Z,49.03
2023-07-25T20:32:01.404Z,49.17
2023-07-25T20:34:29.274Z,49.19
2023-07-25T20:36:58.952Z,49.19
2023-07-25T20:39:26.784Z,49.38
2023-07-25T20:41:54.547Z,49.46
2023-07-25T20:44:22.470Z,49.54
2023-07-25T20:46:50.453Z,49.63
2023-07-25T20:49:18.309Z,49.78
2023-07-25T20:51:46.117Z,49.77
2023-07-25T20:54:15.301Z,49.73
2023-07-25T20:56:43.080Z,49.83
2023-07-25T20:59:14.776Z,49.92
2023-07-25T21:01:42.958Z,49.90
2023-07-25T21:04:10.925Z,49.92
2023-07-25T21:06:38.725Z,50.00
2023-07-25T21:09:06.510Z,50.06
2023-07-25T21:11:35.694Z,50.02
2023-07-25T21:14:03.532Z,50.16
2023-07-25T21:16:31.977Z,50.25
2023-07-25T21:19:00.082Z,50.18
2023-07-25T21:21:28.009Z,50.42
2023-07-25T21:23:55.804Z,50.31
2023-07-25T21:26:23.678Z,50.48
2023-07-25T21:28:52.807Z,50.47
2023-07-25T21:31:20.634Z,50.49
2023-07-25T21:33:48.651Z,50.53
2023-07-25T21:36:16.760Z,50.64
2023-07-25T21:38:44.711Z,50.87
2023-07-25T21:41:14.229Z,50.37
2023-07-25T21:43:42.988Z,50.74
2023-07-25T21:46:12.184Z,50.67
2023-07-25T21:48:40.011Z,50.64
2023-07-25T21:51:08.835Z,50.69
2023-07-25T21:53:36.713Z,50.70
2023-07-25T21:56:04.792Z,50.67
2023-07-25T21:58:32.648Z,50.69
2023-07-25T22:01:00.814Z,50.77
2023-07-25T22:03:30.572Z,50.78
2023-07-25T22:06:00.093Z,50.90
2023-07-25T22:08:27.938Z,50.92
2023-07-25T22:10:56.643Z,50.81
2023-07-25T22:13:24.954Z,50.80
2023-07-25T22:15:52.891Z,51.09
2023-07-25T22:18:20.652Z,50.87
2023-07-25T22:20:52.773Z,50.83
2023-07-25T22:23:21.603Z,50.77
2023-07-25T22:25:49.758Z,50.98
2023-07-25T22:28:17.603Z,50.95
2023-07-25T22:30:45.427Z,50.91
2023-07-25T22:33:13.211Z,50.87
2023-07-25T22:35:41.046Z,50.92
2023-07-25T22:38:10.198Z,51.01
2023-07-25T22:40:37.973Z,51.12
2023-07-25T22:43:06.213Z,51.12
2023-07-25T22:45:34.061Z,51.18
2023-07-25T22:48:01.961Z,51.14
2023-07-25T22:50:29.771Z,51.15
2023-07-25T22:52:57.556Z,51.24
2023-07-25T22:55:26.700Z,51.30
2023-07-25T22:57:54.860Z,51.28
2023-07-25T23:00:22.707Z,51.37
2023-07-25T23:02:52.484Z,51.29
2023-07-25T23:05:20.496Z,51.60
2023-07-25T23:07:48.327Z,51.54
2023-07-25T23:10:16.580Z,51.52
2023-07-25T23:12:45.838Z,51.46
2023-07-25T23:15:14.521Z,51.48
2023-07-25T23:17:42.386Z,51.55
2023-07-25T23:20:10.980Z,51.73
2023-07-25T23:22:38.858Z,51.71
2023-07-25T23:25:07.456Z,51.99
2023-07-25T23:27:35.273Z,51.99
2023-07-25T23:30:05.235Z,52.13
2023-07-25T23:32:33.055Z,52.17
2023-07-25T23:35:00.810Z,52.14
2023-07-25T23:37:28.602Z,52.18
2023-07-25T23:39:56.529Z,52.27
2023-07-25T23:42:24.346Z,52.30
2023-07-25T23:44:52.173Z,52.22
2023-07-25T23:47:21.340Z,52.42
2023-07-25T23:49:49.166Z,52.42
2023-07-25T23:52:16.948Z,52.66
2023-07-25T23:54:44.783Z,52.48
2023-07-25T23:57:13.203Z,52.72
2023-07-25T23:59:40.988Z,52.83
